sensor_id;sensor_type;location;lat;lon;timestamp;pressure;altitude;pressure_sealevel;temperature;humidity
76337;BME280;65157;50.082;18.178;2023-07-09T00:01:50;99613.20;;;17.68;63.67
76337;BME280;65157;50.082;18.178;2023-07-09T00:04:18;99621.00;;;17.75;63.72
76337;BME280;65157;50.082;18.178;2023-07-09T00:06:45;99623.52;;;17.74;63.81
76337;BME280;65157;50.082;18.178;2023-07-09T00:09:17;99622.71;;;17.70;63.92
76337;BME280;65157;50.082;18.178;2023-07-09T00:11:45;99623.81;;;17.67;64.03
76337;BME280;65157;50.082;18.178;2023-07-09T00:14:15;99624.02;;;17.67;63.87
76337;BME280;65157;50.082;18.178;2023-07-09T00:16:44;99616.23;;;17.60;64.01
76337;BME280;65157;50.082;18.178;2023-07-09T00:19:12;99627.83;;;17.63;64.16
76337;BME280;65157;50.082;18.178;2023-07-09T00:21:39;99626.39;;;17.58;64.25
76337;BME280;65157;50.082;18.178;2023-07-09T00:24:07;99624.05;;;17.52;64.47
76337;BME280;65157;50.082;18.178;2023-07-09T00:26:34;99623.50;;;17.46;64.58
76337;BME280;65157;50.082;18.178;2023-07-09T00:29:00;99624.06;;;17.43;64.55
76337;BME280;65157;50.082;18.178;2023-07-09T00:31:27;99618.95;;;17.40;64.82
76337;BME280;65157;50.082;18.178;2023-07-09T00:33:53;99625.29;;;17.38;64.63
76337;BME280;65157;50.082;18.178;2023-07-09T00:36:26;99626.36;;;17.35;64.62
76337;BME280;65157;50.082;18.178;2023-07-09T00:38:53;99627.19;;;17.31;64.98
76337;BME280;65157;50.082;18.178;2023-07-09T00:41:23;99626.20;;;17.24;64.91
76337;BME280;65157;50.082;18.178;2023-07-09T00:43:51;99619.55;;;17.19;64.87
76337;BME280;65157;50.082;18.178;2023-07-09T00:48:50;99619.45;;;17.13;64.59
76337;BME280;65157;50.082;18.178;2023-07-09T00:51:21;99617.58;;;17.11;64.79
76337;BME280;65157;50.082;18.178;2023-07-09T00:53:51;99620.13;;;17.10;64.62
76337;BME280;65157;50.082;18.178;2023-07-09T00:56:28;99608.36;;;17.05;64.65
76337;BME280;65157;50.082;18.178;2023-07-09T00:58:58;99614.30;;;17.07;64.63
76337;BME280;65157;50.082;18.178;2023-07-09T01:01:25;99606.53;;;17.00;64.58
76337;BME280;65157;50.082;18.178;2023-07-09T01:03:53;99613.66;;;17.03;64.52
76337;BME280;65157;50.082;18.178;2023-07-09T01:06:27;99613.08;;;17.01;64.51
76337;BME280;65157;50.082;18.178;2023-07-09T01:08:56;99616.73;;;16.96;64.70
76337;BME280;65157;50.082;18.178;2023-07-09T01:11:23;99617.84;;;16.93;64.80
76337;BME280;65157;50.082;18.178;2023-07-09T01:14:11;99607.59;;;16.83;64.88
76337;BME280;65157;50.082;18.178;2023-07-09T01:16:44;99616.36;;;16.85;64.62
76337;BME280;65157;50.082;18.178;2023-07-09T01:19:13;99621.29;;;16.83;64.62
76337;BME280;65157;50.082;18.178;2023-07-09T01:21:40;99622.75;;;16.83;64.61
76337;BME280;65157;50.082;18.178;2023-07-09T01:24:15;99618.74;;;16.81;64.63
76337;BME280;65157;50.082;18.178;2023-07-09T01:26:42;99621.23;;;16.78;64.73
76337;BME280;65157;50.082;18.178;2023-07-09T01:29:08;99618.44;;;16.72;64.58
76337;BME280;65157;50.082;18.178;2023-07-09T01:31:35;99621.13;;;16.71;64.55
76337;BME280;65157;50.082;18.178;2023-07-09T01:34:02;99620.42;;;16.68;64.52
76337;BME280;65157;50.082;18.178;2023-07-09T01:36:28;99616.74;;;16.65;64.70
76337;BME280;65157;50.082;18.178;2023-07-09T01:38:56;99620.67;;;16.62;64.53
76337;BME280;65157;50.082;18.178;2023-07-09T01:41:22;99621.59;;;16.58;64.68
76337;BME280;65157;50.082;18.178;2023-07-09T01:43:49;99623.20;;;16.55;64.43
76337;BME280;65157;50.082;18.178;2023-07-09T01:46:15;99610.41;;;16.46;64.53
76337;BME280;65157;50.082;18.178;2023-07-09T01:48:42;99625.46;;;16.53;64.40
76337;BME280;65157;50.082;18.178;2023-07-09T01:51:14;99628.34;;;16.52;64.48
76337;BME280;65157;50.082;18.178;2023-07-09T01:53:42;99627.88;;;16.48;64.59
76337;BME280;65157;50.082;18.178;2023-07-09T01:56:11;99629.37;;;16.44;64.60
76337;BME280;65157;50.082;18.178;2023-07-09T01:58:38;99629.50;;;16.38;64.68
76337;BME280;65157;50.082;18.178;2023-07-09T02:01:04;99631.64;;;16.36;64.95
76337;BME280;65157;50.082;18.178;2023-07-09T02:03:31;99630.34;;;16.34;64.88
76337;BME280;65157;50.082;18.178;2023-07-09T02:05:58;99634.23;;;16.34;64.74
76337;BME280;65157;50.082;18.178;2023-07-09T02:08:25;99633.46;;;16.35;64.71
76337;BME280;65157;50.082;18.178;2023-07-09T02:10:54;99635.23;;;16.36;64.62
76337;BME280;65157;50.082;18.178;2023-07-09T02:13:20;99635.77;;;16.35;64.74
76337;BME280;65157;50.082;18.178;2023-07-09T02:15:47;99634.39;;;16.31;65.16
76337;BME280;65157;50.082;18.178;2023-07-09T02:18:14;99638.96;;;16.33;65.19
76337;BME280;65157;50.082;18.178;2023-07-09T02:20:41;99637.23;;;16.29;65.29
76337;BME280;65157;50.082;18.178;2023-07-09T02:23:07;99642.95;;;16.25;65.52
76337;BME280;65157;50.082;18.178;2023-07-09T02:25:35;99644.51;;;16.20;65.55
76337;BME280;65157;50.082;18.178;2023-07-09T02:28:01;99647.84;;;16.18;65.49
76337;BME280;65157;50.082;18.178;2023-07-09T02:30:28;99649.00;;;16.13;65.42
76337;BME280;65157;50.082;18.178;2023-07-09T02:32:54;99652.73;;;16.11;65.57
76337;BME280;65157;50.082;18.178;2023-07-09T02:35:22;99649.40;;;16.07;65.56
76337;BME280;65157;50.082;18.178;2023-07-09T02:37:48;99650.98;;;16.05;65.62
76337;BME280;65157;50.082;18.178;2023-07-09T02:40:15;99652.20;;;16.02;65.84
76337;BME280;65157;50.082;18.178;2023-07-09T02:42:50;99636.48;;;15.87;65.91
76337;BME280;65157;50.082;18.178;2023-07-09T02:45:16;99654.86;;;15.93;65.81
76337;BME280;65157;50.082;18.178;2023-07-09T02:47:42;99658.61;;;15.89;65.91
76337;BME280;65157;50.082;18.178;2023-07-09T02:50:09;99653.65;;;15.86;65.97
76337;BME280;65157;50.082;18.178;2023-07-09T02:52:36;99653.11;;;15.83;66.25
76337;BME280;65157;50.082;18.178;2023-07-09T02:55:03;99652.83;;;15.78;67.39
76337;BME280;65157;50.082;18.178;2023-07-09T02:57:30;99655.00;;;15.75;67.71
76337;BME280;65157;50.082;18.178;2023-07-09T02:59:56;99652.16;;;15.71;68.01
76337;BME280;65157;50.082;18.178;2023-07-09T03:02:23;99650.98;;;15.70;68.04
76337;BME280;65157;50.082;18.178;2023-07-09T03:04:49;99650.20;;;15.65;67.41
76337;BME280;65157;50.082;18.178;2023-07-09T03:07:15;99656.67;;;15.61;67.68
76337;BME280;65157;50.082;18.178;2023-07-09T03:09:42;99661.75;;;15.56;68.16
76337;BME280;65157;50.082;18.178;2023-07-09T03:12:09;99659.34;;;15.52;67.87
76337;BME280;65157;50.082;18.178;2023-07-09T03:14:36;99664.13;;;15.52;68.43
76337;BME280;65157;50.082;18.178;2023-07-09T03:17:03;99667.44;;;15.50;68.22
76337;BME280;65157;50.082;18.178;2023-07-09T03:19:29;99662.45;;;15.50;67.84
76337;BME280;65157;50.082;18.178;2023-07-09T03:21:56;99665.00;;;15.52;67.74
76337;BME280;65157;50.082;18.178;2023-07-09T03:24:22;99660.77;;;15.52;68.53
76337;BME280;65157;50.082;18.178;2023-07-09T03:26:49;99667.30;;;15.49;68.90
76337;BME280;65157;50.082;18.178;2023-07-09T03:29:15;99667.24;;;15.47;68.69
76337;BME280;65157;50.082;18.178;2023-07-09T03:31:42;99669.42;;;15.50;67.81
76337;BME280;65157;50.082;18.178;2023-07-09T03:34:08;99672.83;;;15.52;68.07
76337;BME280;65157;50.082;18.178;2023-07-09T03:36:37;99670.05;;;15.54;67.97
76337;BME280;65157;50.082;18.178;2023-07-09T03:39:04;99668.42;;;15.55;68.21
76337;BME280;65157;50.082;18.178;2023-07-09T03:41:31;99668.42;;;15.54;68.58
76337;BME280;65157;50.082;18.178;2023-07-09T03:43:58;99666.20;;;15.53;69.30
76337;BME280;65157;50.082;18.178;2023-07-09T03:46:24;99666.95;;;15.52;69.28
76337;BME280;65157;50.082;18.178;2023-07-09T03:48:51;99673.37;;;15.58;68.70
76337;BME280;65157;50.082;18.178;2023-07-09T03:51:17;99673.64;;;15.60;69.10
76337;BME280;65157;50.082;18.178;2023-07-09T03:53:47;99664.97;;;15.55;69.18
76337;BME280;65157;50.082;18.178;2023-07-09T03:56:13;99675.01;;;15.64;69.41
76337;BME280;65157;50.082;18.178;2023-07-09T03:58:40;99672.32;;;15.64;69.25
76337;BME280;65157;50.082;18.178;2023-07-09T04:01:06;99670.97;;;15.63;68.93
76337;BME280;65157;50.082;18.178;2023-07-09T04:03:33;99672.02;;;15.64;68.97
76337;BME280;65157;50.082;18.178;2023-07-09T04:06:00;99670.14;;;15.65;69.40
76337;BME280;65157;50.082;18.178;2023-07-09T04:08:26;99674.51;;;15.66;69.34
76337;BME280;65157;50.082;18.178;2023-07-09T04:10:54;99677.11;;;15.68;69.48
76337;BME280;65157;50.082;18.178;2023-07-09T04:13:21;99679.58;;;15.71;68.71
76337;BME280;65157;50.082;18.178;2023-07-09T04:15:48;99676.95;;;15.77;68.88
76337;BME280;65157;50.082;18.178;2023-07-09T04:18:14;99681.54;;;15.84;68.36
76337;BME280;65157;50.082;18.178;2023-07-09T04:20:41;99682.98;;;15.90;68.55
76337;BME280;65157;50.082;18.178;2023-07-09T04:23:15;99689.82;;;15.95;68.65
76337;BME280;65157;50.082;18.178;2023-07-09T04:25:41;99682.11;;;15.99;68.74
76337;BME280;65157;50.082;18.178;2023-07-09T04:28:08;99683.73;;;16.04;68.45
76337;BME280;65157;50.082;18.178;2023-07-09T04:30:35;99674.94;;;16.02;68.41
76337;BME280;65157;50.082;18.178;2023-07-09T04:33:02;99685.70;;;16.13;67.91
76337;BME280;65157;50.082;18.178;2023-07-09T04:35:29;99673.10;;;16.13;67.43
76337;BME280;65157;50.082;18.178;2023-07-09T04:37:56;99680.85;;;16.20;67.58
76337;BME280;65157;50.082;18.178;2023-07-09T04:40:23;99685.00;;;16.25;67.26
76337;BME280;65157;50.082;18.178;2023-07-09T04:42:49;99688.84;;;16.32;67.78
76337;BME280;65157;50.082;18.178;2023-07-09T04:45:16;99693.63;;;16.39;68.09
76337;BME280;65157;50.082;18.178;2023-07-09T04:47:42;99689.55;;;16.44;67.62
76337;BME280;65157;50.082;18.178;2023-07-09T04:50:09;99692.04;;;16.54;68.10
76337;BME280;65157;50.082;18.178;2023-07-09T04:52:39;99680.43;;;16.64;68.25
76337;BME280;65157;50.082;18.178;2023-07-09T04:55:08;99681.87;;;16.72;68.51
76337;BME280;65157;50.082;18.178;2023-07-09T04:57:35;99684.16;;;16.84;68.57
76337;BME280;65157;50.082;18.178;2023-07-09T05:00:04;99684.14;;;16.90;67.79
76337;BME280;65157;50.082;18.178;2023-07-09T05:02:32;99684.98;;;17.00;67.76
76337;BME280;65157;50.082;18.178;2023-07-09T05:04:58;99678.94;;;17.06;66.98
76337;BME280;65157;50.082;18.178;2023-07-09T05:07:25;99683.11;;;17.19;67.00
76337;BME280;65157;50.082;18.178;2023-07-09T05:09:51;99683.60;;;17.30;66.64
76337;BME280;65157;50.082;18.178;2023-07-09T05:12:18;99687.12;;;17.42;66.62
76337;BME280;65157;50.082;18.178;2023-07-09T05:14:44;99688.20;;;17.54;66.69
76337;BME280;65157;50.082;18.178;2023-07-09T05:17:11;99686.38;;;17.66;66.77
76337;BME280;65157;50.082;18.178;2023-07-09T05:19:38;99682.21;;;17.80;66.70
76337;BME280;65157;50.082;18.178;2023-07-09T05:22:05;99683.35;;;17.98;66.17
76337;BME280;65157;50.082;18.178;2023-07-09T05:24:32;99687.35;;;18.16;66.02
76337;BME280;65157;50.082;18.178;2023-07-09T05:26:58;99686.09;;;18.35;66.25
76337;BME280;65157;50.082;18.178;2023-07-09T05:29:25;99683.89;;;18.52;65.94
76337;BME280;65157;50.082;18.178;2023-07-09T05:31:52;99686.51;;;18.71;65.70
76337;BME280;65157;50.082;18.178;2023-07-09T05:34:19;99690.09;;;18.89;64.56
76337;BME280;65157;50.082;18.178;2023-07-09T05:36:46;99687.66;;;19.06;64.17
76337;BME280;65157;50.082;18.178;2023-07-09T05:39:13;99688.08;;;19.25;63.60
76337;BME280;65157;50.082;18.178;2023-07-09T05:41:39;99690.61;;;19.42;62.82
76337;BME280;65157;50.082;18.178;2023-07-09T05:44:06;99685.66;;;19.54;62.92
76337;BME280;65157;50.082;18.178;2023-07-09T05:46:35;99695.73;;;19.78;62.49
76337;BME280;65157;50.082;18.178;2023-07-09T05:49:03;99698.58;;;19.98;61.61
76337;BME280;65157;50.082;18.178;2023-07-09T05:51:30;99689.52;;;20.16;60.74
76337;BME280;65157;50.082;18.178;2023-07-09T05:53:57;99693.77;;;20.36;60.41
76337;BME280;65157;50.082;18.178;2023-07-09T05:56:23;99690.21;;;20.55;60.94
76337;BME280;65157;50.082;18.178;2023-07-09T05:58:50;99687.17;;;20.77;60.04
76337;BME280;65157;50.082;18.178;2023-07-09T06:01:16;99686.73;;;20.99;59.27
76337;BME280;65157;50.082;18.178;2023-07-09T06:03:43;99679.24;;;21.15;58.89
76337;BME280;65157;50.082;18.178;2023-07-09T06:06:09;99680.06;;;21.36;58.32
76337;BME280;65157;50.082;18.178;2023-07-09T06:08:36;99681.05;;;21.57;57.57
76337;BME280;65157;50.082;18.178;2023-07-09T06:11:03;99681.67;;;21.67;57.44
76337;BME280;65157;50.082;18.178;2023-07-09T06:13:30;99671.16;;;21.81;56.56
76337;BME280;65157;50.082;18.178;2023-07-09T06:15:58;99671.23;;;22.03;55.70
76337;BME280;65157;50.082;18.178;2023-07-09T06:18:27;99679.61;;;22.23;55.35
76337;BME280;65157;50.082;18.178;2023-07-09T06:20:55;99678.27;;;22.41;55.64
76337;BME280;65157;50.082;18.178;2023-07-09T06:23:21;99677.05;;;22.60;55.54
76337;BME280;65157;50.082;18.178;2023-07-09T06:25:48;99676.69;;;22.79;55.79
76337;BME280;65157;50.082;18.178;2023-07-09T06:28:15;99667.21;;;22.94;55.15
76337;BME280;65157;50.082;18.178;2023-07-09T06:30:42;99672.21;;;23.22;54.55
76337;BME280;65157;50.082;18.178;2023-07-09T06:33:10;99664.43;;;23.38;54.13
76337;BME280;65157;50.082;18.178;2023-07-09T06:35:38;99673.86;;;23.62;52.88
76337;BME280;65157;50.082;18.178;2023-07-09T06:38:06;99660.11;;;23.68;52.37
76337;BME280;65157;50.082;18.178;2023-07-09T06:40:33;99673.38;;;23.85;51.25
76337;BME280;65157;50.082;18.178;2023-07-09T06:42:59;99674.02;;;24.04;51.04
76337;BME280;65157;50.082;18.178;2023-07-09T06:45:26;99675.16;;;24.17;50.07
76337;BME280;65157;50.082;18.178;2023-07-09T06:47:52;99673.73;;;24.25;50.46
76337;BME280;65157;50.082;18.178;2023-07-09T06:50:19;99675.94;;;24.36;50.38
76337;BME280;65157;50.082;18.178;2023-07-09T06:52:46;99673.27;;;24.51;50.42
76337;BME280;65157;50.082;18.178;2023-07-09T06:55:12;99669.14;;;24.72;50.69
76337;BME280;65157;50.082;18.178;2023-07-09T06:57:39;99667.70;;;24.93;50.28
76337;BME280;65157;50.082;18.178;2023-07-09T07:00:07;99664.70;;;25.11;49.72
76337;BME280;65157;50.082;18.178;2023-07-09T07:02:34;99658.91;;;25.30;49.44
76337;BME280;65157;50.082;18.178;2023-07-09T07:05:01;99666.08;;;25.55;49.55
76337;BME280;65157;50.082;18.178;2023-07-09T07:07:28;99664.19;;;25.72;48.05
76337;BME280;65157;50.082;18.178;2023-07-09T07:09:55;99661.02;;;25.88;47.91
76337;BME280;65157;50.082;18.178;2023-07-09T07:12:26;99663.98;;;26.10;47.75
76337;BME280;65157;50.082;18.178;2023-07-09T07:14:55;99650.34;;;26.24;47.91
76337;BME280;65157;50.082;18.178;2023-07-09T07:17:22;99656.69;;;26.50;47.47
76337;BME280;65157;50.082;18.178;2023-07-09T07:19:50;99656.50;;;26.66;46.79
76337;BME280;65157;50.082;18.178;2023-07-09T07:22:16;99654.50;;;26.84;47.29
76337;BME280;65157;50.082;18.178;2023-07-09T07:24:43;99641.05;;;26.95;46.11
76337;BME280;65157;50.082;18.178;2023-07-09T07:27:11;99656.02;;;27.16;46.11
76337;BME280;65157;50.082;18.178;2023-07-09T07:29:59;99652.05;;;27.30;45.96
76337;BME280;65157;50.082;18.178;2023-07-09T07:32:39;99657.40;;;27.42;46.84
76337;BME280;65157;50.082;18.178;2023-07-09T07:35:12;99659.28;;;27.53;46.99
76337;BME280;65157;50.082;18.178;2023-07-09T07:37:42;99659.95;;;27.65;46.39
76337;BME280;65157;50.082;18.178;2023-07-09T07:40:11;99660.39;;;27.79;45.99
76337;BME280;65157;50.082;18.178;2023-07-09T07:42:44;99664.84;;;27.93;46.61
76337;BME280;65157;50.082;18.178;2023-07-09T07:45:11;99649.38;;;28.07;45.87
76337;BME280;65157;50.082;18.178;2023-07-09T07:47:37;99657.17;;;28.29;45.24
76337;BME280;65157;50.082;18.178;2023-07-09T07:50:05;99656.68;;;28.37;44.59
76337;BME280;65157;50.082;18.178;2023-07-09T07:52:32;99653.36;;;28.47;44.60
76337;BME280;65157;50.082;18.178;2023-07-09T07:54:59;99651.05;;;28.54;44.30
76337;BME280;65157;50.082;18.178;2023-07-09T07:57:25;99650.79;;;28.70;44.41
76337;BME280;65157;50.082;18.178;2023-07-09T07:59:52;99650.08;;;28.85;43.54
76337;BME280;65157;50.082;18.178;2023-07-09T08:02:18;99651.20;;;28.89;43.44
76337;BME280;65157;50.082;18.178;2023-07-09T08:04:46;99654.08;;;29.05;42.97
76337;BME280;65157;50.082;18.178;2023-07-09T08:07:12;99648.58;;;29.24;42.95
76337;BME280;65157;50.082;18.178;2023-07-09T08:09:39;99648.60;;;29.39;42.94
76337;BME280;65157;50.082;18.178;2023-07-09T08:12:06;99645.66;;;29.49;42.50
76337;BME280;65157;50.082;18.178;2023-07-09T08:14:32;99647.92;;;29.67;42.90
76337;BME280;65157;50.082;18.178;2023-07-09T08:16:59;99648.17;;;29.89;42.56
76337;BME280;65157;50.082;18.178;2023-07-09T08:19:26;99648.78;;;30.03;41.27
76337;BME280;65157;50.082;18.178;2023-07-09T08:21:55;99649.48;;;30.17;41.81
76337;BME280;65157;50.082;18.178;2023-07-09T08:24:22;99644.36;;;30.38;41.58
76337;BME280;65157;50.082;18.178;2023-07-09T08:26:48;99640.96;;;30.53;40.70
76337;BME280;65157;50.082;18.178;2023-07-09T08:29:16;99640.42;;;30.60;40.55
76337;BME280;65157;50.082;18.178;2023-07-09T08:31:43;99631.58;;;30.73;40.72
76337;BME280;65157;50.082;18.178;2023-07-09T08:34:09;99628.76;;;30.90;39.75
76337;BME280;65157;50.082;18.178;2023-07-09T08:36:36;99631.60;;;30.92;38.37
76337;BME280;65157;50.082;18.178;2023-07-09T08:39:04;99629.55;;;30.96;38.57
76337;BME280;65157;50.082;18.178;2023-07-09T08:41:43;99631.15;;;31.08;38.06
76337;BME280;65157;50.082;18.178;2023-07-09T08:44:20;99630.54;;;31.10;36.70
76337;BME280;65157;50.082;18.178;2023-07-09T08:47:01;99631.97;;;31.26;37.18
76337;BME280;65157;50.082;18.178;2023-07-09T08:49:59;99622.01;;;31.38;34.72
76337;BME280;65157;50.082;18.178;2023-07-09T08:52:38;99630.98;;;31.41;31.90
76337;BME280;65157;50.082;18.178;2023-07-09T08:55:18;99635.61;;;31.27;30.27
76337;BME280;65157;50.082;18.178;2023-07-09T08:57:52;99630.00;;;31.16;31.42
76337;BME280;65157;50.082;18.178;2023-07-09T09:00:28;99631.07;;;31.22;32.90
76337;BME280;65157;50.082;18.178;2023-07-09T09:02:58;99634.23;;;31.23;33.61
76337;BME280;65157;50.082;18.178;2023-07-09T09:05:26;99632.48;;;31.43;34.05
76337;BME280;65157;50.082;18.178;2023-07-09T09:08:04;99633.14;;;31.63;34.44
76337;BME280;65157;50.082;18.178;2023-07-09T09:10:42;99636.25;;;31.87;33.85
76337;BME280;65157;50.082;18.178;2023-07-09T09:13:13;99630.17;;;32.08;33.29
76337;BME280;65157;50.082;18.178;2023-07-09T09:15:42;99627.98;;;32.24;32.85
76337;BME280;65157;50.082;18.178;2023-07-09T09:18:20;99627.30;;;32.29;30.99
76337;BME280;65157;50.082;18.178;2023-07-09T09:20:52;99628.88;;;32.28;32.49
76337;BME280;65157;50.082;18.178;2023-07-09T09:23:21;99620.67;;;32.28;31.69
76337;BME280;65157;50.082;18.178;2023-07-09T09:25:52;99626.27;;;32.43;30.48
76337;BME280;65157;50.082;18.178;2023-07-09T09:28:19;99623.23;;;32.50;29.75
76337;BME280;65157;50.082;18.178;2023-07-09T09:30:46;99626.40;;;32.67;28.85
76337;BME280;65157;50.082;18.178;2023-07-09T09:33:16;99626.48;;;32.89;29.23
76337;BME280;65157;50.082;18.178;2023-07-09T09:35:45;99627.58;;;33.07;28.25
76337;BME280;65157;50.082;18.178;2023-07-09T09:38:16;99621.15;;;33.06;26.86
76337;BME280;65157;50.082;18.178;2023-07-09T09:40:43;99626.17;;;33.03;27.17
76337;BME280;65157;50.082;18.178;2023-07-09T09:43:18;99624.45;;;32.98;26.30
76337;BME280;65157;50.082;18.178;2023-07-09T09:45:49;99624.45;;;33.02;28.43
76337;BME280;65157;50.082;18.178;2023-07-09T09:48:26;99621.79;;;33.23;28.25
76337;BME280;65157;50.082;18.178;2023-07-09T09:50:53;99610.00;;;33.27;28.45
76337;BME280;65157;50.082;18.178;2023-07-09T09:53:24;99621.34;;;33.43;27.18
76337;BME280;65157;50.082;18.178;2023-07-09T09:55:52;99626.48;;;33.59;26.72
76337;BME280;65157;50.082;18.178;2023-07-09T09:58:24;99627.52;;;33.68;26.70
76337;BME280;65157;50.082;18.178;2023-07-09T10:00:52;99624.73;;;33.71;26.86
76337;BME280;65157;50.082;18.178;2023-07-09T10:03:21;99623.20;;;33.75;26.93
76337;BME280;65157;50.082;18.178;2023-07-09T10:05:58;99625.52;;;33.75;26.32
76337;BME280;65157;50.082;18.178;2023-07-09T10:11:18;99622.04;;;33.69;26.47
76337;BME280;65157;50.082;18.178;2023-07-09T10:13:45;99618.23;;;33.69;25.77
76337;BME280;65157;50.082;18.178;2023-07-09T10:16:27;99614.52;;;33.79;25.31
76337;BME280;65157;50.082;18.178;2023-07-09T10:19:12;99613.52;;;33.75;26.43
76337;BME280;65157;50.082;18.178;2023-07-09T10:21:46;99605.38;;;33.71;25.64
76337;BME280;65157;50.082;18.178;2023-07-09T10:24:49;99598.58;;;33.64;26.08
76337;BME280;65157;50.082;18.178;2023-07-09T10:27:59;99612.00;;;33.74;26.53
76337;BME280;65157;50.082;18.178;2023-07-09T10:30:35;99614.55;;;33.87;26.70
76337;BME280;65157;50.082;18.178;2023-07-09T10:33:11;99608.09;;;34.00;27.63
76337;BME280;65157;50.082;18.178;2023-07-09T10:35:50;99611.44;;;33.93;26.35
76337;BME280;65157;50.082;18.178;2023-07-09T10:41:36;99601.29;;;33.89;26.79
76337;BME280;65157;50.082;18.178;2023-07-09T10:44:06;99598.68;;;33.95;26.72
76337;BME280;65157;50.082;18.178;2023-07-09T10:46:39;99600.65;;;34.00;27.43
76337;BME280;65157;50.082;18.178;2023-07-09T10:49:12;99604.57;;;34.05;26.32
76337;BME280;65157;50.082;18.178;2023-07-09T10:52:05;99596.70;;;33.91;25.84
76337;BME280;65157;50.082;18.178;2023-07-09T10:54:53;99596.84;;;33.86;26.85
76337;BME280;65157;50.082;18.178;2023-07-09T10:57:39;99591.85;;;34.00;27.64
76337;BME280;65157;50.082;18.178;2023-07-09T11:00:17;99584.36;;;34.12;26.80
76337;BME280;65157;50.082;18.178;2023-07-09T11:02:48;99585.73;;;34.24;25.71
76337;BME280;65157;50.082;18.178;2023-07-09T11:05:17;99580.39;;;34.17;25.60
76337;BME280;65157;50.082;18.178;2023-07-09T11:08:15;99585.53;;;34.23;25.41
76337;BME280;65157;50.082;18.178;2023-07-09T11:10:52;99575.58;;;34.19;25.63
76337;BME280;65157;50.082;18.178;2023-07-09T11:16:01;99587.82;;;34.63;25.11
76337;BME280;65157;50.082;18.178;2023-07-09T11:18:34;99586.42;;;34.64;26.33
76337;BME280;65157;50.082;18.178;2023-07-09T11:21:07;99589.61;;;34.79;26.48
76337;BME280;65157;50.082;18.178;2023-07-09T11:23:44;99581.05;;;34.84;25.54
76337;BME280;65157;50.082;18.178;2023-07-09T11:26:15;99577.50;;;34.78;24.70
76337;BME280;65157;50.082;18.178;2023-07-09T11:31:35;99589.10;;;34.55;23.11
76337;BME280;65157;50.082;18.178;2023-07-09T11:34:18;99589.84;;;34.34;23.94
76337;BME280;65157;50.082;18.178;2023-07-09T11:37:08;99584.61;;;34.28;23.93
76337;BME280;65157;50.082;18.178;2023-07-09T11:42:31;99581.61;;;34.34;24.24
76337;BME280;65157;50.082;18.178;2023-07-09T11:45:02;99576.42;;;34.48;25.12
76337;BME280;65157;50.082;18.178;2023-07-09T11:47:37;99581.80;;;34.60;24.50
76337;BME280;65157;50.082;18.178;2023-07-09T11:52:59;99580.80;;;34.79;24.46
76337;BME280;65157;50.082;18.178;2023-07-09T11:55:35;99577.29;;;34.74;24.27
76337;BME280;65157;50.082;18.178;2023-07-09T11:58:06;99571.05;;;34.64;25.06
76337;BME280;65157;50.082;18.178;2023-07-09T12:00:45;99570.34;;;34.83;25.70
76337;BME280;65157;50.082;18.178;2023-07-09T12:03:18;99569.16;;;34.92;25.00
76337;BME280;65157;50.082;18.178;2023-07-09T12:05:51;99562.04;;;34.98;26.04
76337;BME280;65157;50.082;18.178;2023-07-09T12:08:35;99560.65;;;35.11;24.83
76337;BME280;65157;50.082;18.178;2023-07-09T12:11:05;99563.44;;;35.18;25.68
76337;BME280;65157;50.082;18.178;2023-07-09T12:13:38;99563.61;;;34.96;24.20
76337;BME280;65157;50.082;18.178;2023-07-09T12:16:20;99558.70;;;34.72;23.83
76337;BME280;65157;50.082;18.178;2023-07-09T12:18:47;99552.14;;;34.71;24.84
76337;BME280;65157;50.082;18.178;2023-07-09T12:21:14;99546.59;;;34.75;24.93
76337;BME280;65157;50.082;18.178;2023-07-09T12:23:41;99545.92;;;34.70;24.31
76337;BME280;65157;50.082;18.178;2023-07-09T12:26:16;99544.31;;;34.63;24.06
76337;BME280;65157;50.082;18.178;2023-07-09T12:28:42;99540.21;;;34.70;24.99
76337;BME280;65157;50.082;18.178;2023-07-09T12:31:13;99542.03;;;34.75;23.92
76337;BME280;65157;50.082;18.178;2023-07-09T12:33:48;99540.19;;;34.54;23.97
76337;BME280;65157;50.082;18.178;2023-07-09T12:36:17;99536.17;;;34.64;25.48
76337;BME280;65157;50.082;18.178;2023-07-09T12:38:52;99534.87;;;34.81;24.87
76337;BME280;65157;50.082;18.178;2023-07-09T12:41:33;99529.27;;;34.95;24.41
76337;BME280;65157;50.082;18.178;2023-07-09T12:44:01;99524.96;;;34.73;25.27
76337;BME280;65157;50.082;18.178;2023-07-09T12:46:28;99525.91;;;34.76;25.07
76337;BME280;65157;50.082;18.178;2023-07-09T12:48:55;99517.81;;;34.78;25.14
76337;BME280;65157;50.082;18.178;2023-07-09T12:51:25;99515.85;;;34.91;25.27
76337;BME280;65157;50.082;18.178;2023-07-09T12:54:20;99515.75;;;34.96;25.14
76337;BME280;65157;50.082;18.178;2023-07-09T12:56:52;99500.31;;;34.91;24.96
76337;BME280;65157;50.082;18.178;2023-07-09T12:59:28;99509.92;;;34.90;25.15
76337;BME280;65157;50.082;18.178;2023-07-09T13:02:00;99509.34;;;34.80;24.55
76337;BME280;65157;50.082;18.178;2023-07-09T13:04:38;99509.64;;;34.58;25.03
76337;BME280;65157;50.082;18.178;2023-07-09T13:09:53;99500.42;;;34.68;26.25
76337;BME280;65157;50.082;18.178;2023-07-09T13:12:28;99502.11;;;34.78;26.79
76337;BME280;65157;50.082;18.178;2023-07-09T13:14:56;99501.56;;;34.77;24.91
76337;BME280;65157;50.082;18.178;2023-07-09T13:17:23;99505.33;;;34.64;26.13
76337;BME280;65157;50.082;18.178;2023-07-09T13:19:49;99501.61;;;34.73;26.89
76337;BME280;65157;50.082;18.178;2023-07-09T13:22:18;99505.15;;;34.86;26.65
76337;BME280;65157;50.082;18.178;2023-07-09T13:24:45;99510.30;;;34.95;26.06
76337;BME280;65157;50.082;18.178;2023-07-09T13:27:13;99506.20;;;34.90;25.28